Time;durP1;ratioP1;P1;durP2;ratioP2;P2;SDS_P1;SDS_P2;PMS_P1;PMS_P2;Temp;Humidity;BMP_temperature;BMP_pressure;BME280_temperature;BME280_humidity;BME280_pressure;Samples;Min_cycle;Max_cycle;Signal;HPM_P1;HPM_P2
2022/12/17 13:06:45;;;;;;;55.90;36.20;;;-1.30;99.90;;;;;;5054394;28;20405;-73
2022/12/17 13:09:17;;;;;;;48.57;31.10;;;-1.40;99.90;;;;;;5052680;28;20410;-72
2022/12/17 13:12:01;;;;;;;51.63;33.07;;;-1.50;99.90;;;;;;5053927;28;20400;-73
2022/12/17 13:14:46;;;;;;;53.70;32.30;;;-1.40;99.90;;;;;;5053794;28;20447;-72
2022/12/17 13:17:29;;;;;;;48.10;32.40;;;-1.30;99.90;;;;;;5053527;28;20385;-73
2022/12/17 13:20:19;;;;;;;53.10;34.80;;;-1.30;99.90;;;;;;5053765;28;20461;-73
2022/12/17 13:23:13;;;;;;;57.20;37.33;;;-1.30;99.90;;;;;;5053975;28;20428;-73
2022/12/17 13:25:40;;;;;;;60.90;35.33;;;-1.40;99.90;;;;;;5051427;28;20408;-75
2022/12/17 13:28:26;;;;;;;57.43;37.87;;;-1.30;99.90;;;;;;5052395;28;20401;-73
2022/12/17 13:31:12;;;;;;;56.97;40.50;;;-1.40;99.90;;;;;;5053777;28;20492;-73
2022/12/17 13:34:13;;;;;;;60.73;39.23;;;-1.40;99.90;;;;;;5033084;28;20501;-75
2022/12/17 13:36:48;;;;;;;50.83;34.70;;;-1.40;99.90;;;;;;5032716;28;20422;-72
2022/12/17 13:39:41;;;;;;;63.80;41.90;;;-1.50;99.90;;;;;;5043621;28;20417;-74
2022/12/17 13:42:23;;;;;;;64.80;38.50;;;-1.50;99.90;;;;;;5052267;28;20884;-75
2022/12/17 13:44:49;;;;;;;52.60;34.40;;;-1.50;99.90;;;;;;5052372;28;20875;-72
2022/12/17 13:47:22;;;;;;;52.37;36.00;;;-1.40;99.90;;;;;;5053410;28;20777;-74
2022/12/17 13:49:55;;;;;;;55.03;35.77;;;-1.30;99.90;;;;;;5053042;28;20400;-74
2022/12/17 13:52:24;;;;;;;53.17;34.40;;;-1.30;99.90;;;;;;5053451;28;20398;-74
2022/12/17 13:54:50;;;;;;;53.93;35.17;;;-1.30;99.90;;;;;;5053359;28;20449;-73
2022/12/17 13:57:24;;;;;;;55.00;34.57;;;-1.40;99.90;;;;;;5053070;28;20478;-74
2022/12/17 13:59:55;;;;;;;60.63;38.67;;;-1.70;99.90;;;;;;5051731;28;20164;-74
2022/12/17 14:02:28;;;;;;;58.00;37.03;;;-1.80;99.90;;;;;;5053610;28;20385;-74
2022/12/17 14:04:55;;;;;;;59.73;37.67;;;-1.80;99.90;;;;;;5053446;28;20405;-73
2022/12/17 14:07:22;;;;;;;61.73;37.03;;;-1.70;99.90;;;;;;5053288;28;20470;-74
2022/12/17 14:09:48;;;;;;;59.33;38.67;;;-1.60;99.90;;;;;;5052035;28;20501;-74
2022/12/17 14:12:22;;;;;;;61.07;39.57;;;-1.60;99.90;;;;;;5053241;28;20417;-74
2022/12/17 14:15:07;;;;;;;68.17;40.57;;;-1.80;99.90;;;;;;5051602;28;21005;-73
2022/12/17 14:17:45;;;;;;;68.67;38.27;;;-1.60;99.90;;;;;;5053183;28;20416;-74
2022/12/17 14:20:18;;;;;;;55.27;36.50;;;-1.60;99.90;;;;;;5055338;28;20405;-74
2022/12/17 14:22:48;;;;;;;63.63;38.70;;;-1.60;99.90;;;;;;5057031;28;20925;-74
2022/12/17 14:25:18;;;;;;;58.37;35.60;;;-1.70;99.90;;;;;;5056217;28;20410;-74
2022/12/17 14:27:59;;;;;;;60.73;37.30;;;-1.60;99.90;;;;;;5055839;28;20413;-74
2022/12/17 14:30:41;;;;;;;54.93;35.37;;;-1.80;99.90;;;;;;5056725;28;20439;-74
2022/12/17 14:33:26;;;;;;;58.93;37.10;;;-1.80;99.90;;;;;;5055767;28;20454;-74
2022/12/17 14:35:54;;;;;;;62.00;36.60;;;-1.80;99.90;;;;;;5057099;28;20419;-73
2022/12/17 14:38:20;;;;;;;60.47;37.80;;;-2.00;99.90;;;;;;5057014;28;20393;-73
2022/12/17 14:40:46;;;;;;;54.77;36.10;;;-1.90;99.90;;;;;;5056618;28;20417;-74
2022/12/17 14:43:13;;;;;;;61.60;37.53;;;-1.80;99.90;;;;;;5055608;28;20432;-73
2022/12/17 14:51:28;;;;;;;55.57;36.40;;;-1.80;99.90;;;;;;5056831;28;20471;-74
2022/12/17 14:54:15;;;;;;;57.80;38.50;;;-1.90;99.90;;;;;;5057368;28;20510;-74
2022/12/17 14:56:41;;;;;;;54.60;36.70;;;-1.90;99.90;;;;;;5056781;28;20746;-73
2022/12/17 14:59:24;;;;;;;58.90;35.43;;;-2.00;99.90;;;;;;5056766;28;20404;-74
2022/12/17 15:01:52;;;;;;;54.57;36.20;;;-2.10;99.90;;;;;;5054072;28;20420;-74
2022/12/17 15:04:18;;;;;;;62.60;37.40;;;-2.10;99.90;;;;;;5054787;28;20502;-74
2022/12/17 15:06:44;;;;;;;55.40;34.93;;;-2.00;99.90;;;;;;5054889;28;20413;-74
2022/12/17 15:09:11;;;;;;;54.90;36.07;;;-2.00;99.90;;;;;;5056084;28;20881;-74
2022/12/17 15:11:37;;;;;;;54.37;35.70;;;-2.00;99.90;;;;;;5055887;28;20193;-74
2022/12/17 15:14:02;;;;;;;46.43;30.93;;;-2.10;99.90;;;;;;5056045;28;20448;-74
2022/12/17 15:16:28;;;;;;;58.40;34.93;;;-2.10;99.90;;;;;;5055554;28;20182;-74
2022/12/17 15:18:53;;;;;;;49.33;33.73;;;-2.20;99.90;;;;;;5055756;28;20242;-74
2022/12/17 15:21:19;;;;;;;52.13;35.10;;;-2.30;99.90;;;;;;5055998;28;20190;-73
2022/12/17 15:23:46;;;;;;;49.33;31.73;;;-2.50;99.90;;;;;;5055694;28;20191;-74
2022/12/17 15:26:14;;;;;;;57.40;35.90;;;-2.50;99.90;;;;;;5055953;28;20258;-74
2022/12/17 15:28:40;;;;;;;47.97;31.80;;;-2.50;99.90;;;;;;5056252;28;20433;-75
2022/12/17 15:31:07;;;;;;;55.67;34.33;;;-2.40;99.90;;;;;;5054788;28;20405;-74
2022/12/17 15:33:33;;;;;;;70.37;42.90;;;-2.40;99.90;;;;;;5055397;28;20448;-74
2022/12/17 15:35:58;;;;;;;77.53;43.87;;;-2.60;99.90;;;;;;5055734;28;20462;-74
2022/12/17 15:38:24;;;;;;;72.97;42.70;;;-2.70;99.90;;;;;;5055548;28;20170;-73
2022/12/17 15:40:49;;;;;;;60.50;35.83;;;-2.70;99.90;;;;;;5054817;28;20258;-75
2022/12/17 15:43:15;;;;;;;50.17;33.50;;;-2.70;99.90;;;;;;5056406;28;20194;-73
2022/12/17 15:45:44;;;;;;;45.87;30.47;;;-2.70;99.90;;;;;;5055639;28;20277;-74
2022/12/17 15:48:12;;;;;;;48.33;31.93;;;-2.60;99.90;;;;;;5055617;28;20507;-74
2022/12/17 15:50:38;;;;;;;59.90;37.20;;;-2.70;99.90;;;;;;5054277;28;20414;-73
2022/12/17 15:53:04;;;;;;;54.27;35.97;;;-2.90;99.90;;;;;;5055562;28;20417;-74
2022/12/17 15:55:30;;;;;;;50.03;31.80;;;-3.00;99.90;;;;;;5054984;28;20436;-74
2022/12/17 15:57:56;;;;;;;49.73;33.27;;;-3.10;99.90;;;;;;5054024;28;20470;-74
2022/12/17 16:00:23;;;;;;;54.57;36.10;;;-3.00;99.90;;;;;;5055288;28;20428;-71
2022/12/17 16:02:49;;;;;;;53.43;33.60;;;-3.10;99.90;;;;;;5055338;28;20423;-71
2022/12/17 16:05:15;;;;;;;53.23;36.73;;;-3.10;99.90;;;;;;5054082;28;20413;-71
2022/12/17 16:07:42;;;;;;;50.17;35.00;;;-3.10;99.90;;;;;;5055167;28;20405;-72
2022/12/17 16:10:09;;;;;;;50.97;33.13;;;-3.10;99.90;;;;;;5054708;28;20181;-71
2022/12/17 16:12:35;;;;;;;52.17;32.60;;;-3.10;99.90;;;;;;5054846;28;20397;-72
2022/12/17 16:15:01;;;;;;;49.93;33.67;;;-3.20;99.90;;;;;;5054803;28;20452;-71
2022/12/17 16:17:26;;;;;;;53.00;33.23;;;-3.20;99.90;;;;;;5054933;28;20158;-73
2022/12/17 16:19:52;;;;;;;56.10;34.97;;;-3.30;99.90;;;;;;5054836;28;20404;-74
2022/12/17 16:22:18;;;;;;;62.90;39.20;;;-3.40;99.90;;;;;;5055285;28;20256;-74
2022/12/17 16:24:43;;;;;;;50.43;33.40;;;-3.60;99.90;;;;;;5055137;28;20174;-73
2022/12/17 16:27:09;;;;;;;55.63;35.93;;;-3.60;99.90;;;;;;5054298;28;20178;-73
2022/12/17 16:29:34;;;;;;;61.30;38.20;;;-3.60;99.90;;;;;;5054805;28;20691;-73
2022/12/17 16:32:00;;;;;;;59.20;39.50;;;-3.70;99.90;;;;;;5054780;28;20167;-73
2022/12/17 16:34:26;;;;;;;58.30;36.70;;;-3.70;99.90;;;;;;5054685;28;20242;-74
2022/12/17 16:36:52;;;;;;;60.67;38.10;;;-3.80;99.90;;;;;;5069730;28;20167;-73
2022/12/17 16:39:18;;;;;;;54.57;34.80;;;-3.80;99.90;;;;;;5054517;28;20163;-72
2022/12/17 16:41:44;;;;;;;58.53;37.07;;;-3.70;99.90;;;;;;5053263;28;20170;-73
2022/12/17 16:44:10;;;;;;;58.47;40.00;;;-3.70;99.90;;;;;;5054527;28;20980;-74
2022/12/17 16:46:41;;;;;;;63.03;40.70;;;-3.70;99.90;;;;;;5054737;28;20413;-75
2022/12/17 16:49:10;;;;;;;55.23;36.80;;;-3.70;99.90;;;;;;5054869;28;20166;-73
2022/12/17 16:51:36;;;;;;;52.60;36.10;;;-3.70;99.90;;;;;;5054508;28;20413;-72
2022/12/17 16:54:13;;;;;;;57.07;37.93;;;-3.60;99.90;;;;;;5054483;28;20556;-75
2022/12/17 16:56:40;;;;;;;57.30;37.10;;;-3.80;99.90;;;;;;5053931;28;20394;-75
2022/12/17 16:59:07;;;;;;;55.67;37.73;;;-3.80;99.90;;;;;;5054731;28;20405;-74
2022/12/17 17:01:33;;;;;;;56.13;36.60;;;-3.70;99.90;;;;;;5053062;28;20454;-74
2022/12/17 17:03:58;;;;;;;82.77;46.50;;;-3.60;99.90;;;;;;5053882;28;20421;-74
2022/12/17 17:06:25;;;;;;;64.10;38.00;;;-3.60;99.90;;;;;;5053879;28;20397;-74
2022/12/17 17:08:50;;;;;;;57.53;37.70;;;-3.60;99.90;;;;;;5054067;28;20580;-74
2022/12/17 17:11:20;;;;;;;54.50;36.30;;;-3.50;99.90;;;;;;5053360;28;20443;-74
2022/12/17 17:13:50;;;;;;;61.50;40.97;;;-3.50;99.90;;;;;;5052177;28;20269;-73
2022/12/17 17:16:18;;;;;;;60.30;39.70;;;-3.60;99.90;;;;;;5054011;28;20386;-74
2022/12/17 17:18:43;;;;;;;64.33;39.17;;;-3.50;99.90;;;;;;5052917;28;20779;-74
2022/12/17 17:21:15;;;;;;;58.97;40.03;;;-3.50;99.90;;;;;;5054530;28;20398;-74
2022/12/17 17:23:41;;;;;;;59.93;38.47;;;-3.50;99.90;;;;;;5053675;28;20221;-73
2022/12/17 17:26:07;;;;;;;70.27;40.07;;;-3.50;99.90;;;;;;5053255;28;20401;-75
2022/12/17 17:28:33;;;;;;;61.20;36.93;;;-3.50;99.90;;;;;;5053510;28;20444;-75
2022/12/17 17:31:03;;;;;;;67.87;41.43;;;-3.50;99.90;;;;;;5054256;28;20432;-74
2022/12/17 17:33:37;;;;;;;53.13;35.20;;;-3.50;99.90;;;;;;5053482;28;20778;-74
2022/12/17 17:36:20;;;;;;;59.90;38.17;;;-3.60;99.90;;;;;;5053627;28;20394;-74
2022/12/17 17:38:47;;;;;;;64.60;36.87;;;-3.60;99.90;;;;;;5054076;28;20392;-74
2022/12/17 17:41:16;;;;;;;57.10;38.53;;;-3.60;99.90;;;;;;5052332;28;20428;-74
2022/12/17 17:43:42;;;;;;;56.07;35.97;;;-3.80;99.90;;;;;;5053928;28;20425;-74
2022/12/17 17:46:17;;;;;;;65.10;39.77;;;-3.90;99.90;;;;;;5053996;28;20488;-72
2022/12/17 17:48:44;;;;;;;58.03;37.07;;;-3.90;99.90;;;;;;5053681;28;20409;-74
2022/12/17 17:51:17;;;;;;;67.70;41.07;;;-4.00;99.90;;;;;;5054614;28;20504;-74
2022/12/17 17:53:47;;;;;;;67.93;41.10;;;-4.10;99.90;;;;;;5054549;28;20440;-72
2022/12/17 17:56:24;;;;;;;67.10;40.57;;;-4.10;99.90;;;;;;5053832;28;20496;-71
2022/12/17 17:58:52;;;;;;;72.07;45.07;;;-4.30;99.90;;;;;;5055389;28;20384;-71
2022/12/17 18:01:24;;;;;;;55.07;37.13;;;-4.10;99.90;;;;;;5055425;28;20484;-71
2022/12/17 18:03:51;;;;;;;68.33;42.00;;;-4.00;99.90;;;;;;5054056;28;20527;-72
2022/12/17 18:06:16;;;;;;;77.57;48.10;;;-3.90;99.90;;;;;;5054646;28;20409;-69
2022/12/17 18:08:43;;;;;;;67.00;42.53;;;-3.90;99.90;;;;;;5054284;28;20437;-71
2022/12/17 18:11:11;;;;;;;67.57;41.27;;;-4.00;99.90;;;;;;5052945;28;20249;-70
2022/12/17 18:13:55;;;;;;;69.43;42.40;;;-3.90;99.90;;;;;;5051060;28;20433;-71
2022/12/17 18:16:39;;;;;;;63.13;41.50;;;-3.90;99.90;;;;;;5044287;28;20938;-72
2022/12/17 18:19:08;;;;;;;68.73;43.57;;;-3.90;99.90;;;;;;5042775;28;20421;-72
2022/12/17 18:21:33;;;;;;;57.40;36.80;;;-3.90;99.90;;;;;;5043044;28;20413;-69
2022/12/17 18:24:05;;;;;;;79.73;43.33;;;-3.80;99.90;;;;;;5044358;28;20421;-74
2022/12/17 18:26:34;;;;;;;59.90;39.73;;;-3.90;99.90;;;;;;5044069;28;20511;-71
2022/12/17 18:29:03;;;;;;;64.83;39.60;;;-3.80;99.90;;;;;;5044462;28;20791;-70
2022/12/17 18:31:29;;;;;;;78.37;46.33;;;-3.90;99.90;;;;;;5044225;28;20922;-69
2022/12/17 18:33:58;;;;;;;68.07;42.93;;;-3.90;99.90;;;;;;5044029;28;20987;-73
2022/12/17 18:36:30;;;;;;;77.73;46.17;;;-3.90;99.90;;;;;;5046356;28;20463;-71
2022/12/17 18:39:03;;;;;;;59.07;39.57;;;-3.90;99.90;;;;;;5051692;28;20402;-70
2022/12/17 18:44:14;;;;;;;68.20;42.73;;;-3.90;99.90;;;;;;5052801;28;20508;-71
2022/12/17 18:46:40;;;;;;;63.00;40.30;;;-3.80;99.90;;;;;;5052883;28;20401;-70
2022/12/17 18:49:11;;;;;;;76.30;40.83;;;-3.90;99.90;;;;;;5052740;28;20454;-71
2022/12/17 18:51:39;;;;;;;59.23;38.77;;;-3.90;99.90;;;;;;5053300;28;20373;-71
2022/12/17 18:54:06;;;;;;;74.40;42.97;;;-3.90;99.90;;;;;;5052742;28;20445;-71
2022/12/17 18:56:33;;;;;;;53.50;37.97;;;-3.90;99.90;;;;;;5052106;28;20930;-70
2022/12/17 18:58:58;;;;;;;66.37;42.97;;;-3.80;99.90;;;;;;5052578;28;20907;-71
2022/12/17 19:01:26;;;;;;;73.57;42.43;;;-3.80;99.90;;;;;;5053062;28;20405;-72
2022/12/17 19:03:53;;;;;;;63.77;39.07;;;-3.80;99.90;;;;;;5052276;28;20187;-70
2022/12/17 19:06:19;;;;;;;72.53;44.27;;;-3.80;99.90;;;;;;5054513;28;20776;-70
2022/12/17 19:08:46;;;;;;;68.50;41.33;;;-3.80;99.90;;;;;;5056518;28;20447;-72
2022/12/17 19:11:13;;;;;;;65.90;41.63;;;-3.80;99.90;;;;;;5056039;28;20436;-71
2022/12/17 19:13:39;;;;;;;66.63;41.57;;;-3.90;99.90;;;;;;5056568;28;20432;-71
2022/12/17 19:16:09;;;;;;;59.43;40.70;;;-3.90;99.90;;;;;;5056371;28;20405;-72
2022/12/17 19:18:35;;;;;;;67.07;39.27;;;-4.00;99.90;;;;;;5057081;28;20836;-72
2022/12/17 19:21:00;;;;;;;53.03;35.37;;;-4.00;99.90;;;;;;5057435;28;20436;-72
2022/12/17 19:23:26;;;;;;;61.60;36.80;;;-4.00;99.90;;;;;;5055618;28;20486;-71
2022/12/17 19:25:51;;;;;;;63.87;40.50;;;-4.00;99.90;;;;;;5056093;28;20167;-71
2022/12/17 19:28:17;;;;;;;61.00;38.63;;;-3.90;99.90;;;;;;5056308;28;20704;-71
2022/12/17 19:30:43;;;;;;;64.90;41.90;;;-3.90;99.90;;;;;;5056609;28;20503;-71
2022/12/17 19:33:09;;;;;;;75.50;44.53;;;-3.90;99.90;;;;;;5057212;28;20665;-72
2022/12/17 19:35:35;;;;;;;84.03;46.60;;;-3.90;99.90;;;;;;5057239;28;20230;-71
2022/12/17 19:38:00;;;;;;;84.53;50.67;;;-3.90;99.90;;;;;;5057063;28;20536;-72
2022/12/17 19:40:26;;;;;;;78.87;44.37;;;-3.90;99.90;;;;;;5056263;28;20772;-72
2022/12/17 19:42:54;;;;;;;69.63;42.60;;;-3.90;99.90;;;;;;5056952;28;20191;-71
2022/12/17 19:45:20;;;;;;;71.23;43.30;;;-4.00;99.90;;;;;;5057030;28;20220;-72
2022/12/17 19:47:46;;;;;;;66.77;42.33;;;-3.90;99.90;;;;;;5057262;28;20400;-72
2022/12/17 19:50:12;;;;;;;61.97;39.90;;;-4.10;99.90;;;;;;5056741;28;20405;-69
2022/12/17 19:52:38;;;;;;;62.97;40.10;;;-4.10;99.90;;;;;;5056309;28;20466;-68
2022/12/17 19:55:04;;;;;;;66.43;39.67;;;-4.10;99.90;;;;;;5056363;28;20456;-70
2022/12/17 19:57:30;;;;;;;74.10;42.30;;;-4.10;99.90;;;;;;5056000;28;20171;-70
2022/12/17 19:59:56;;;;;;;69.17;43.83;;;-4.00;99.90;;;;;;5054469;28;20417;-70
2022/12/17 20:02:21;;;;;;;66.27;38.87;;;-4.00;99.90;;;;;;5055836;28;20767;-70
2022/12/17 20:04:47;;;;;;;70.77;42.60;;;-4.10;99.90;;;;;;5056131;28;20213;-72
2022/12/17 20:07:12;;;;;;;66.70;42.03;;;-4.20;99.90;;;;;;5054772;28;20171;-71
2022/12/17 20:09:39;;;;;;;63.80;40.63;;;-4.10;99.90;;;;;;5057309;28;20181;-72
2022/12/17 20:12:05;;;;;;;64.70;42.47;;;-4.10;99.90;;;;;;5056293;28;20181;-72
2022/12/17 20:14:33;;;;;;;69.77;44.03;;;-4.10;99.90;;;;;;5056798;28;20974;-73
2022/12/17 20:17:00;;;;;;;75.73;41.43;;;-4.10;99.90;;;;;;5056710;28;20455;-72
2022/12/17 20:19:30;;;;;;;74.10;43.83;;;-4.00;99.90;;;;;;5057162;28;20408;-73
2022/12/17 20:21:57;;;;;;;69.70;42.67;;;-4.20;99.90;;;;;;5054957;28;20912;-71
2022/12/17 20:24:22;;;;;;;65.20;39.97;;;-4.30;99.90;;;;;;5054256;28;20429;-72
2022/12/17 20:26:50;;;;;;;62.13;42.07;;;-4.30;99.90;;;;;;5055627;28;20469;-71
2022/12/17 20:29:17;;;;;;;65.83;41.27;;;-4.40;99.90;;;;;;5055219;28;20554;-71
2022/12/17 20:31:43;;;;;;;67.97;41.10;;;-4.30;99.90;;;;;;5053749;28;20767;-71
2022/12/17 20:34:12;;;;;;;70.13;43.03;;;-4.30;99.90;;;;;;5055314;28;20595;-71
2022/12/17 20:36:39;;;;;;;66.47;41.93;;;-4.30;99.90;;;;;;5055873;28;20190;-68
2022/12/17 20:39:06;;;;;;;69.73;41.07;;;-4.30;99.90;;;;;;5055837;28;20402;-71
2022/12/17 20:41:33;;;;;;;59.70;40.30;;;-4.40;99.90;;;;;;5054881;28;20429;-69
2022/12/17 20:44:07;;;;;;;65.50;40.03;;;-4.40;99.90;;;;;;5055394;28;20905;-70
2022/12/17 20:46:33;;;;;;;61.43;40.50;;;-4.50;99.90;;;;;;5055565;28;20389;-71
2022/12/17 20:48:59;;;;;;;65.63;40.37;;;-4.40;99.90;;;;;;5055319;28;20762;-70
2022/12/17 20:51:27;;;;;;;64.27;39.43;;;-4.50;99.90;;;;;;5054732;28;20401;-68
2022/12/17 20:53:54;;;;;;;69.67;42.67;;;-4.40;99.90;;;;;;5054241;28;20939;-68
2022/12/17 20:56:23;;;;;;;62.00;39.53;;;-4.50;99.90;;;;;;5054366;28;20497;-69
2022/12/17 20:59:01;;;;;;;68.23;39.57;;;-4.50;99.90;;;;;;5049924;28;20489;-69
2022/12/17 21:01:28;;;;;;;66.93;42.87;;;-4.50;99.90;;;;;;5034726;28;20394;-70
2022/12/17 21:03:55;;;;;;;65.50;38.87;;;-4.40;99.90;;;;;;5034568;28;20438;-70
2022/12/17 21:06:27;;;;;;;67.47;40.90;;;-4.40;99.90;;;;;;5033200;28;20421;-69
2022/12/17 21:08:54;;;;;;;69.50;40.40;;;-4.30;99.90;;;;;;5034995;28;20759;-68
2022/12/17 21:11:22;;;;;;;71.20;42.03;;;-4.30;99.90;;;;;;5044026;28;20417;-69
2022/12/17 21:13:47;;;;;;;66.97;40.80;;;-4.40;99.90;;;;;;5054974;28;20454;-70
2022/12/17 21:16:16;;;;;;;69.23;41.27;;;-4.50;99.90;;;;;;5055311;28;20397;-70
2022/12/17 21:18:42;;;;;;;77.80;45.53;;;-4.60;99.90;;;;;;5054815;28;20155;-70
2022/12/17 21:21:13;;;;;;;78.30;43.93;;;-4.60;99.90;;;;;;5053215;28;20413;-69
2022/12/17 21:23:39;;;;;;;72.33;43.87;;;-4.60;99.90;;;;;;5054006;28;20185;-69
2022/12/17 21:26:14;;;;;;;73.97;45.30;;;-4.50;99.90;;;;;;5053947;28;20407;-69
2022/12/17 21:28:44;;;;;;;90.07;47.70;;;-4.50;99.90;;;;;;5054437;28;20413;-68
2022/12/17 21:31:16;;;;;;;81.67;48.10;;;-4.60;99.90;;;;;;5054067;28;20405;-68
2022/12/17 21:33:42;;;;;;;70.03;43.47;;;-4.60;99.90;;;;;;5053751;28;20539;-68
2022/12/17 21:36:07;;;;;;;71.07;43.37;;;-4.60;99.90;;;;;;5054524;28;20445;-70
2022/12/17 21:38:33;;;;;;;67.53;42.30;;;-4.60;99.90;;;;;;5055958;28;20568;-69
2022/12/17 21:41:10;;;;;;;70.67;43.10;;;-4.70;99.90;;;;;;5053169;28;20522;-69
2022/12/17 21:43:37;;;;;;;67.00;41.67;;;-4.60;99.90;;;;;;5053667;28;20190;-68
2022/12/17 21:46:03;;;;;;;68.30;40.77;;;-4.60;99.90;;;;;;5053864;28;20424;-70
2022/12/17 21:48:29;;;;;;;65.37;40.60;;;-4.60;99.90;;;;;;5053737;28;20401;-71
2022/12/17 21:50:55;;;;;;;64.73;40.97;;;-4.60;99.90;;;;;;5053683;28;20451;-71
2022/12/17 21:53:21;;;;;;;69.60;41.23;;;-4.70;99.90;;;;;;5053674;28;20186;-70
2022/12/17 21:55:47;;;;;;;72.57;45.00;;;-4.70;99.90;;;;;;5052866;28;20532;-69
2022/12/17 21:58:14;;;;;;;73.93;44.03;;;-4.90;99.90;;;;;;5053132;28;20448;-69
2022/12/17 22:00:40;;;;;;;83.67;50.53;;;-4.80;99.90;;;;;;5053420;28;20408;-70
2022/12/17 22:03:06;;;;;;;77.67;44.40;;;-4.70;99.90;;;;;;5051758;28;20435;-70
2022/12/17 22:05:34;;;;;;;59.40;40.50;;;-4.60;99.90;;;;;;5051710;28;20775;-70
2022/12/17 22:07:59;;;;;;;71.50;44.80;;;-4.60;99.90;;;;;;5053073;28;20175;-70
2022/12/17 22:10:25;;;;;;;70.57;42.73;;;-4.60;99.90;;;;;;5053053;28;20498;-71
2022/12/17 22:15:36;;;;;;;58.60;39.20;;;-4.60;99.90;;;;;;5053472;28;20190;-69
2022/12/17 22:18:02;;;;;;;53.00;36.60;;;-4.60;99.90;;;;;;5053927;28;20412;-70
2022/12/17 22:20:27;;;;;;;64.80;39.07;;;-4.50;99.90;;;;;;5051591;28;20413;-69
2022/12/17 22:22:53;;;;;;;68.27;38.90;;;-4.50;99.90;;;;;;5052905;28;20256;-69
2022/12/17 22:25:19;;;;;;;63.80;40.10;;;-4.50;99.90;;;;;;5052567;28;20178;-68
2022/12/17 22:27:44;;;;;;;62.97;39.30;;;-4.50;99.90;;;;;;5052664;28;20420;-71
2022/12/17 22:33:04;;;;;;;71.13;39.77;;;-4.70;99.90;;;;;;5052363;28;20231;-67
2022/12/17 22:35:37;;;;;;;68.40;44.47;;;-4.70;99.90;;;;;;5052586;28;20463;-70
2022/12/17 22:38:05;;;;;;;65.47;40.83;;;-4.70;99.90;;;;;;5052816;28;20416;-68
2022/12/17 22:40:37;;;;;;;67.80;42.03;;;-4.60;99.90;;;;;;5054429;28;20408;-69
2022/12/17 22:45:48;;;;;;;61.80;39.37;;;-4.50;99.90;;;;;;5056991;28;20388;-70
2022/12/17 22:48:14;;;;;;;57.60;37.10;;;-4.50;99.90;;;;;;5056519;28;20779;-70
2022/12/17 22:50:39;;;;;;;68.83;39.47;;;-4.60;99.90;;;;;;5056676;28;20167;-70
2022/12/17 22:53:05;;;;;;;71.10;40.73;;;-4.60;99.90;;;;;;5054954;28;20452;-69
2022/12/17 22:55:32;;;;;;;66.13;40.87;;;-4.80;99.90;;;;;;5056159;28;20468;-69
2022/12/17 22:57:57;;;;;;;73.80;41.67;;;-4.70;99.90;;;;;;5054709;28;20206;-70
2022/12/17 23:00:27;;;;;;;68.80;42.97;;;-4.70;99.90;;;;;;5055925;28;20409;-70
2022/12/17 23:02:54;;;;;;;55.63;37.67;;;-4.70;99.90;;;;;;5056119;28;20224;-70
2022/12/17 23:05:24;;;;;;;67.57;39.03;;;-4.70;99.90;;;;;;5054592;28;20412;-70
2022/12/17 23:07:50;;;;;;;58.63;36.20;;;-4.70;99.90;;;;;;5055747;28;20500;-69
2022/12/17 23:10:16;;;;;;;60.97;40.97;;;-4.70;99.90;;;;;;5055864;28;20425;-70
2022/12/17 23:12:52;;;;;;;57.77;38.17;;;-4.70;99.90;;;;;;5053977;28;20471;-70
2022/12/17 23:15:25;;;;;;;61.17;38.73;;;-4.70;99.90;;;;;;5056007;28;20436;-69
2022/12/17 23:17:53;;;;;;;62.23;37.03;;;-4.60;99.90;;;;;;5055995;28;20440;-70
2022/12/17 23:20:18;;;;;;;54.33;35.47;;;-4.60;99.90;;;;;;5056188;28;20405;-68
2022/12/17 23:22:44;;;;;;;58.87;38.67;;;-4.60;99.90;;;;;;5055743;28;20429;-69
2022/12/17 23:25:10;;;;;;;63.70;37.77;;;-4.70;99.90;;;;;;5055889;28;20178;-70
2022/12/17 23:27:36;;;;;;;61.43;36.63;;;-4.60;99.90;;;;;;5055319;28;20918;-70
2022/12/17 23:30:02;;;;;;;62.80;37.57;;;-4.50;99.90;;;;;;5056109;28;20185;-69
2022/12/17 23:32:28;;;;;;;63.50;39.73;;;-4.60;99.90;;;;;;5054274;28;20559;-69
2022/12/17 23:34:53;;;;;;;52.23;35.00;;;-4.70;99.90;;;;;;5054493;28;20437;-69
2022/12/17 23:37:19;;;;;;;56.10;35.67;;;-4.70;99.90;;;;;;5054427;28;20169;-70
2022/12/17 23:39:44;;;;;;;54.93;37.70;;;-4.70;99.90;;;;;;5055635;28;20238;-68
2022/12/17 23:42:10;;;;;;;55.47;35.63;;;-4.60;99.90;;;;;;5054020;28;20254;-69
2022/12/17 23:44:35;;;;;;;59.67;39.10;;;-4.70;99.90;;;;;;5055570;28;20194;-69
2022/12/17 23:47:01;;;;;;;49.77;36.33;;;-4.60;99.90;;;;;;5055414;28;20183;-70
2022/12/17 23:49:26;;;;;;;51.17;34.40;;;-4.60;99.90;;;;;;5055032;28;20622;-69
2022/12/17 23:51:52;;;;;;;54.00;36.60;;;-4.60;99.90;;;;;;5053010;28;20209;-69
2022/12/17 23:54:17;;;;;;;63.63;40.23;;;-4.60;99.90;;;;;;5054870;28;20191;-70
2022/12/17 23:56:44;;;;;;;61.57;37.13;;;-4.60;99.90;;;;;;5054579;28;20174;-69
2022/12/17 23:59:09;;;;;;;56.97;36.37;;;-4.60;99.90;;;;;;5055487;28;20163;-70
